createdAt,value
2023-05-10T00:00:40.890Z,12.19
2023-05-10T00:03:25.900Z,12.14
2023-05-10T00:06:10.703Z,12.13
2023-05-10T00:08:55.641Z,11.99
2023-05-10T00:11:40.720Z,12.00
2023-05-10T00:14:25.595Z,12.06
2023-05-10T00:17:10.664Z,12.13
2023-05-10T00:19:55.510Z,12.17
2023-05-10T00:22:40.584Z,12.23
2023-05-10T00:25:25.700Z,12.26
2023-05-10T00:28:10.557Z,12.27
2023-05-10T00:30:55.646Z,12.36
2023-05-10T00:33:40.568Z,12.41
2023-05-10T00:36:25.759Z,12.42
2023-05-10T00:39:10.688Z,12.35
2023-05-10T00:41:55.856Z,12.24
2023-05-10T00:44:40.815Z,12.02
2023-05-10T00:47:25.961Z,11.84
2023-05-10T00:50:11.031Z,11.69
2023-05-10T00:52:55.897Z,11.64
2023-05-10T00:55:41.000Z,11.61
2023-05-10T00:58:26.011Z,11.61
2023-05-10T01:01:11.099Z,11.65
2023-05-10T01:03:56.078Z,11.69
2023-05-10T01:06:41.009Z,11.64
2023-05-10T01:09:25.894Z,11.61
2023-05-10T01:12:11.043Z,11.67
2023-05-10T01:14:56.166Z,11.75
2023-05-10T01:17:41.042Z,11.80
2023-05-10T01:20:26.134Z,11.78
2023-05-10T01:23:10.967Z,11.68
2023-05-10T01:25:56.048Z,11.81
2023-05-10T01:28:41.000Z,11.91
2023-05-10T01:31:26.031Z,11.98
2023-05-10T01:34:10.968Z,12.03
2023-05-10T01:36:55.927Z,12.02
2023-05-10T01:39:41.213Z,12.06
2023-05-10T01:42:26.246Z,12.12
2023-05-10T01:45:11.578Z,12.08
2023-05-10T01:47:56.639Z,12.08
2023-05-10T01:50:41.506Z,11.97
2023-05-10T01:53:26.413Z,11.86
2023-05-10T01:56:11.287Z,11.89
2023-05-10T01:58:56.443Z,11.89
2023-05-10T02:01:41.369Z,11.94
2023-05-10T02:04:26.479Z,11.93
2023-05-10T02:07:11.346Z,11.91
2023-05-10T02:09:56.417Z,11.92
2023-05-10T02:12:41.428Z,11.86
2023-05-10T02:15:26.389Z,11.92
2023-05-10T02:18:11.349Z,11.88
2023-05-10T02:20:56.502Z,11.77
2023-05-10T02:23:41.685Z,11.66
2023-05-10T02:26:26.486Z,11.61
2023-05-10T02:29:11.648Z,11.48
2023-05-10T02:31:56.580Z,11.28
2023-05-10T02:34:41.571Z,11.16
2023-05-10T02:37:26.511Z,11.17
2023-05-10T02:40:11.501Z,11.24
2023-05-10T02:42:56.694Z,11.29
2023-05-10T02:45:41.712Z,11.31
2023-05-10T02:48:26.822Z,11.34
2023-05-10T02:51:11.574Z,11.37
2023-05-10T02:53:56.757Z,11.40
2023-05-10T02:56:41.632Z,11.36
2023-05-10T02:59:26.745Z,11.32
2023-05-10T03:02:11.749Z,11.33
2023-05-10T03:04:56.741Z,11.30
2023-05-10T03:07:41.797Z,11.34
2023-05-10T03:10:26.640Z,11.38
2023-05-10T03:13:11.927Z,11.41
2023-05-10T03:15:56.840Z,11.39
2023-05-10T03:18:41.794Z,11.37
2023-05-10T03:21:26.592Z,11.42
2023-05-10T03:24:11.743Z,11.45
2023-05-10T03:26:56.769Z,11.40
2023-05-10T03:29:41.776Z,11.37
2023-05-10T03:32:26.854Z,11.37
2023-05-10T03:35:11.885Z,11.43
2023-05-10T03:37:56.986Z,11.55
2023-05-10T03:40:41.806Z,11.66
2023-05-10T03:43:26.918Z,11.69
2023-05-10T03:46:11.782Z,11.61
2023-05-10T03:48:56.775Z,11.54
2023-05-10T03:51:41.696Z,11.41
2023-05-10T03:54:26.636Z,11.38
2023-05-10T03:57:11.742Z,11.26
2023-05-10T03:59:56.623Z,11.29
2023-05-10T04:02:41.851Z,11.33
2023-05-10T04:05:26.717Z,11.32
2023-05-10T04:08:11.809Z,11.26
2023-05-10T04:10:56.833Z,11.23
2023-05-10T04:13:41.903Z,11.15
2023-05-10T04:16:27.166Z,11.04
2023-05-10T04:19:12.115Z,11.06
2023-05-10T04:21:57.162Z,11.04
2023-05-10T04:24:42.132Z,10.97
2023-05-10T04:27:27.231Z,10.95
2023-05-10T04:30:12.141Z,10.90
2023-05-10T04:32:57.115Z,10.81
2023-05-10T04:35:42.159Z,10.70
2023-05-10T04:38:27.269Z,10.60
2023-05-10T04:41:12.474Z,10.51
2023-05-10T04:43:57.391Z,10.43
2023-05-10T04:46:42.542Z,10.36
2023-05-10T04:49:27.276Z,10.43
2023-05-10T04:52:12.246Z,10.56
2023-05-10T04:54:57.182Z,10.68
2023-05-10T04:57:42.086Z,10.91
2023-05-10T05:00:27.051Z,11.03
2023-05-10T05:03:12.048Z,11.16
2023-05-10T05:05:58.176Z,11.32
2023-05-10T05:08:43.046Z,11.45
2023-05-10T05:11:28.080Z,11.54
2023-05-10T05:14:13.068Z,11.64
2023-05-10T05:16:57.990Z,11.69
2023-05-10T05:19:43.004Z,11.71
2023-05-10T05:22:27.977Z,11.87
2023-05-10T05:25:13.038Z,12.05
2023-05-10T05:27:57.887Z,12.06
2023-05-10T05:30:42.944Z,12.03
2023-05-10T05:33:27.898Z,11.98
2023-05-10T05:36:12.959Z,11.96
2023-05-10T05:38:57.904Z,12.00
2023-05-10T05:41:42.956Z,12.02
2023-05-10T05:44:28.003Z,12.14
2023-05-10T05:47:12.885Z,12.41
2023-05-10T05:49:57.858Z,12.76
2023-05-10T05:52:42.851Z,12.92
2023-05-10T05:55:27.855Z,13.06
2023-05-10T05:58:12.736Z,13.29
2023-05-10T06:00:57.966Z,13.53
2023-05-10T06:03:43.095Z,13.64
2023-05-10T06:06:27.952Z,13.64
2023-05-10T06:09:12.918Z,13.56
2023-05-10T06:11:57.855Z,13.45
2023-05-10T06:14:42.899Z,13.16
2023-05-10T06:17:27.948Z,12.85
2023-05-10T06:20:12.959Z,12.51
2023-05-10T06:22:57.888Z,12.41
2023-05-10T06:25:42.972Z,12.29
2023-05-10T06:28:27.986Z,12.14
2023-05-10T06:31:13.043Z,11.99
2023-05-10T06:33:58.154Z,11.87
2023-05-10T06:36:43.126Z,11.79
2023-05-10T06:39:28.332Z,11.65
2023-05-10T06:42:13.505Z,11.62
2023-05-10T06:44:58.607Z,11.49
2023-05-10T06:47:43.669Z,11.51
2023-05-10T06:50:28.663Z,11.64
2023-05-10T06:53:13.785Z,11.67
2023-05-10T06:55:58.751Z,11.76
2023-05-10T06:58:43.746Z,11.96
2023-05-10T07:01:28.735Z,12.13
2023-05-10T07:04:13.810Z,12.28
2023-05-10T07:06:58.873Z,12.44
2023-05-10T07:09:44.016Z,12.62
2023-05-10T07:12:28.971Z,12.90
2023-05-10T07:15:13.929Z,12.97
2023-05-10T07:17:59.099Z,13.29
2023-05-10T07:20:43.911Z,13.86
2023-05-10T07:23:28.991Z,14.36
2023-05-10T07:26:14.004Z,14.41
2023-05-10T07:28:59.094Z,14.53
2023-05-10T07:31:44.090Z,14.39
2023-05-10T07:34:29.207Z,14.03
2023-05-10T07:37:14.304Z,14.10
2023-05-10T07:39:59.159Z,14.09
2023-05-10T07:42:44.246Z,14.14
2023-05-10T07:45:29.211Z,14.10
2023-05-10T07:48:14.335Z,14.12
2023-05-10T07:50:59.230Z,13.94
2023-05-10T07:53:44.273Z,13.65
2023-05-10T07:56:29.387Z,13.65
2023-05-10T07:59:14.433Z,13.99
2023-05-10T08:01:59.589Z,14.03
2023-05-10T08:04:44.381Z,13.80
2023-05-10T08:07:29.488Z,13.39
2023-05-10T08:10:14.710Z,13.24
2023-05-10T08:12:59.515Z,12.77
2023-05-10T08:15:44.497Z,12.58
2023-05-10T08:18:29.527Z,12.64
2023-05-10T08:21:14.617Z,12.88
2023-05-10T08:23:59.611Z,13.30
2023-05-10T08:26:44.715Z,13.79
2023-05-10T08:29:32.683Z,14.25
2023-05-10T08:32:20.487Z,14.48
2023-05-10T08:35:05.532Z,14.63
2023-05-10T08:37:50.557Z,14.61
2023-05-10T08:40:35.718Z,14.49
2023-05-10T08:43:20.740Z,14.38
2023-05-10T08:46:05.736Z,14.62
2023-05-10T08:48:50.679Z,14.76
2023-05-10T08:51:35.662Z,14.17
2023-05-10T08:54:20.783Z,14.08
2023-05-10T08:57:05.686Z,13.77
2023-05-10T08:59:50.824Z,13.51
2023-05-10T09:02:35.843Z,13.33
2023-05-10T09:05:20.895Z,13.75
2023-05-10T09:08:05.837Z,14.22
2023-05-10T09:10:50.588Z,14.22
2023-05-10T09:13:35.828Z,14.20
2023-05-10T09:16:22.268Z,14.17
2023-05-10T09:19:07.465Z,14.21
2023-05-10T09:21:52.391Z,14.33
2023-05-10T09:24:37.343Z,14.52
2023-05-10T09:27:22.345Z,14.65
2023-05-10T09:30:07.307Z,14.78
2023-05-10T09:32:52.363Z,14.71
2023-05-10T09:35:37.126Z,14.68
2023-05-10T09:38:22.311Z,14.78
2023-05-10T09:41:07.284Z,15.03
2023-05-10T09:43:52.243Z,15.26
2023-05-10T09:46:37.204Z,15.61
2023-05-10T09:49:22.119Z,15.90
2023-05-10T09:52:07.107Z,16.20
2023-05-10T09:54:52.112Z,16.44
2023-05-10T09:57:37.122Z,16.66
2023-05-10T10:00:22.033Z,16.76
2023-05-10T10:03:07.174Z,16.79
2023-05-10T10:05:51.860Z,16.97
2023-05-10T10:08:36.928Z,16.97
2023-05-10T10:11:21.907Z,17.16
2023-05-10T10:14:07.018Z,17.22
2023-05-10T10:17:05.833Z,17.18
2023-05-10T10:19:52.258Z,17.20
2023-05-10T10:22:37.300Z,17.17
2023-05-10T10:25:22.220Z,16.84
2023-05-10T10:28:06.998Z,16.84
2023-05-10T10:30:51.868Z,16.87
2023-05-10T10:33:36.900Z,16.79
2023-05-10T10:36:21.957Z,16.37
2023-05-10T10:39:07.009Z,16.23
2023-05-10T10:41:52.109Z,15.61
2023-05-10T10:44:37.054Z,15.64
2023-05-10T10:47:22.554Z,15.78
2023-05-10T10:50:07.762Z,15.59
2023-05-10T10:52:52.844Z,15.70
2023-05-10T10:55:37.784Z,15.83
2023-05-10T10:58:22.891Z,15.70
2023-05-10T11:01:08.036Z,15.90
2023-05-10T11:03:52.959Z,16.04
2023-05-10T11:06:37.955Z,15.44
2023-05-10T11:09:22.840Z,15.64
2023-05-10T11:12:07.909Z,15.46
2023-05-10T11:14:52.721Z,15.53
2023-05-10T11:17:37.771Z,15.47
2023-05-10T11:20:22.721Z,15.68
2023-05-10T11:23:07.650Z,15.97
2023-05-10T11:25:52.727Z,16.14
2023-05-10T11:28:37.599Z,16.14
2023-05-10T11:31:22.750Z,16.40
2023-05-10T11:34:07.611Z,16.62
2023-05-10T11:36:52.615Z,16.72
2023-05-10T11:39:37.557Z,16.40
2023-05-10T11:42:22.560Z,16.25
2023-05-10T11:45:07.442Z,16.20
2023-05-10T11:47:52.509Z,16.15
2023-05-10T11:50:37.661Z,16.12
2023-05-10T11:53:23.774Z,15.85
2023-05-10T11:56:10.064Z,15.20
2023-05-10T11:58:55.200Z,14.90
2023-05-10T12:01:40.171Z,15.01
2023-05-10T12:04:25.368Z,14.92
2023-05-10T12:07:10.082Z,15.28
2023-05-10T12:09:55.385Z,15.20
2023-05-10T12:12:40.339Z,15.24
2023-05-10T12:15:25.479Z,15.64
2023-05-10T12:18:10.430Z,15.93
2023-05-10T12:20:55.460Z,15.54
2023-05-10T12:23:40.617Z,15.04
2023-05-10T12:26:25.589Z,14.94
2023-05-10T12:29:10.421Z,14.70
2023-05-10T12:31:55.618Z,14.41
2023-05-10T12:34:40.551Z,14.77
2023-05-10T12:37:25.661Z,14.94
2023-05-10T12:40:10.752Z,14.84
2023-05-10T12:42:55.819Z,14.41
2023-05-10T12:45:40.738Z,14.57
2023-05-10T12:48:25.758Z,14.34
2023-05-10T12:51:10.626Z,14.35
2023-05-10T12:53:55.693Z,14.41
2023-05-10T12:56:40.690Z,14.24
2023-05-10T12:59:25.683Z,14.69
2023-05-10T13:02:10.684Z,15.03
2023-05-10T13:04:55.841Z,15.50
2023-05-10T13:07:40.745Z,15.69
2023-05-10T13:10:25.598Z,15.67
2023-05-10T13:13:10.660Z,15.56
2023-05-10T13:15:55.595Z,15.87
2023-05-10T13:18:40.733Z,15.97
2023-05-10T13:21:25.785Z,15.93
2023-05-10T13:24:10.719Z,16.28
2023-05-10T13:26:55.676Z,16.23
2023-05-10T13:29:41.462Z,16.48
2023-05-10T13:32:27.402Z,16.18
2023-05-10T13:35:12.406Z,16.14
2023-05-10T13:37:57.507Z,16.49
2023-05-10T13:40:42.871Z,16.93
2023-05-10T13:43:27.914Z,17.20
2023-05-10T13:46:12.828Z,16.77
2023-05-10T13:48:57.776Z,16.95
2023-05-10T13:51:42.830Z,16.55
2023-05-10T13:54:27.757Z,16.02
2023-05-10T13:57:12.818Z,14.77
2023-05-10T13:59:57.711Z,14.77
2023-05-10T14:02:42.791Z,14.49
2023-05-10T14:05:28.090Z,14.48
2023-05-10T14:08:13.373Z,14.82
2023-05-10T14:10:58.454Z,15.35
2023-05-10T14:13:43.378Z,15.63
2023-05-10T14:16:28.473Z,15.83
2023-05-10T14:19:13.282Z,14.88
2023-05-10T14:21:58.386Z,14.98
2023-05-10T14:24:43.448Z,15.28
2023-05-10T14:27:28.500Z,15.66
2023-05-10T14:30:13.415Z,15.53
2023-05-10T14:32:58.541Z,15.94
2023-05-10T14:35:43.470Z,15.67
2023-05-10T14:38:28.444Z,15.74
2023-05-10T14:41:13.379Z,15.78
2023-05-10T14:43:58.269Z,15.37
2023-05-10T14:46:43.296Z,15.10
2023-05-10T14:49:28.141Z,15.57
2023-05-10T14:52:13.233Z,15.65
2023-05-10T14:54:58.277Z,16.05
2023-05-10T14:57:43.227Z,16.06
2023-05-10T15:00:28.291Z,15.85
2023-05-10T15:03:13.757Z,15.86
2023-05-10T15:06:01.423Z,15.98
2023-05-10T15:08:46.253Z,16.05
2023-05-10T15:11:31.240Z,15.78
2023-05-10T15:14:16.369Z,15.67
2023-05-10T15:17:01.320Z,15.56
2023-05-10T15:19:46.272Z,15.59
2023-05-10T15:22:32.409Z,15.54
2023-05-10T15:25:18.369Z,15.69
2023-05-10T15:28:03.281Z,15.35
2023-05-10T15:30:47.933Z,15.09
2023-05-10T15:33:33.097Z,15.25
2023-05-10T15:36:18.033Z,15.17
2023-05-10T15:39:03.148Z,14.87
2023-05-10T15:41:48.120Z,14.73
2023-05-10T15:44:33.152Z,14.62
2023-05-10T15:47:17.929Z,14.92
2023-05-10T15:50:02.935Z,15.26
2023-05-10T15:52:47.895Z,15.48
2023-05-10T15:55:32.959Z,15.55
2023-05-10T15:58:18.223Z,15.67
2023-05-10T16:01:03.203Z,15.82
2023-05-10T16:03:48.231Z,15.68
2023-05-10T16:06:33.256Z,15.55
2023-05-10T16:09:18.323Z,14.94
2023-05-10T16:12:03.494Z,15.04
2023-05-10T16:14:48.453Z,15.10
2023-05-10T16:17:33.502Z,15.20
2023-05-10T16:20:18.326Z,14.86
2023-05-10T16:23:03.342Z,14.84
2023-05-10T16:25:48.291Z,14.99
2023-05-10T16:28:33.302Z,15.07
2023-05-10T16:31:18.269Z,14.83
2023-05-10T16:34:03.187Z,15.00
2023-05-10T16:36:48.382Z,14.99
2023-05-10T16:39:35.266Z,15.03
2023-05-10T16:42:20.212Z,15.09
2023-05-10T16:45:04.998Z,15.17
2023-05-10T16:47:50.063Z,15.09
2023-05-10T16:50:34.903Z,14.83
2023-05-10T16:53:19.987Z,14.87
2023-05-10T16:56:05.045Z,14.87
2023-05-10T16:58:50.005Z,14.86
2023-05-10T17:01:35.048Z,14.85
2023-05-10T17:04:20.038Z,14.92
2023-05-10T17:07:05.147Z,14.88
2023-05-10T17:09:50.090Z,14.74
2023-05-10T17:12:35.285Z,14.63
2023-05-10T17:15:20.588Z,14.68
2023-05-10T17:18:05.852Z,14.66
2023-05-10T17:20:50.670Z,14.62
2023-05-10T17:23:35.615Z,14.63
2023-05-10T17:26:20.697Z,14.60
2023-05-10T17:29:05.803Z,14.57
2023-05-10T17:31:50.904Z,14.48
2023-05-10T17:34:35.809Z,14.35
2023-05-10T17:37:20.879Z,14.28
2023-05-10T17:40:05.908Z,14.24
2023-05-10T17:42:50.903Z,14.18
2023-05-10T17:45:36.049Z,14.08
2023-05-10T17:48:21.053Z,14.04
2023-05-10T17:51:06.192Z,13.97
2023-05-10T17:53:54.034Z,13.86
2023-05-10T17:56:39.012Z,13.80
2023-05-10T17:59:23.958Z,13.77
2023-05-10T18:02:08.887Z,13.73
2023-05-10T18:04:54.145Z,13.65
2023-05-10T18:07:38.880Z,13.55
2023-05-10T18:10:23.858Z,13.37
2023-05-10T18:13:09.018Z,13.22
2023-05-10T18:15:53.683Z,13.23
2023-05-10T18:18:38.773Z,13.26
2023-05-10T18:21:23.867Z,13.27
2023-05-10T18:24:08.990Z,13.27
2023-05-10T18:26:53.816Z,13.29
2023-05-10T18:29:38.886Z,13.27
2023-05-10T18:32:23.795Z,13.30
2023-05-10T18:35:08.871Z,13.29
2023-05-10T18:37:53.810Z,13.25
2023-05-10T18:40:38.838Z,13.22
2023-05-10T18:43:23.991Z,13.09
2023-05-10T18:46:08.872Z,13.02
2023-05-10T18:48:53.884Z,13.02
2023-05-10T18:51:38.811Z,13.02
2023-05-10T18:54:23.767Z,12.91
2023-05-10T18:57:08.580Z,12.61
2023-05-10T18:59:53.546Z,12.26
2023-05-10T19:02:38.619Z,12.02
2023-05-10T19:05:23.550Z,11.86
2023-05-10T19:08:08.661Z,11.78
2023-05-10T19:10:53.748Z,11.69
2023-05-10T19:13:38.888Z,11.67
2023-05-10T19:16:23.987Z,11.72
2023-05-10T19:19:09.486Z,11.77
2023-05-10T19:21:54.194Z,11.86
2023-05-10T19:24:39.224Z,11.91
2023-05-10T19:27:24.458Z,12.01
2023-05-10T19:30:09.484Z,12.09
2023-05-10T19:32:54.522Z,12.10
2023-05-10T19:35:39.459Z,12.15
2023-05-10T19:38:24.675Z,12.19
2023-05-10T19:41:09.641Z,12.19
2023-05-10T19:43:54.770Z,12.21
2023-05-10T19:46:39.597Z,12.22
2023-05-10T19:49:24.784Z,12.21
2023-05-10T19:52:11.057Z,12.20
2023-05-10T19:54:56.089Z,12.20
2023-05-10T19:57:41.268Z,12.17
2023-05-10T20:00:26.341Z,12.16
2023-05-10T20:03:11.160Z,12.16
2023-05-10T20:05:56.039Z,12.14
2023-05-10T20:08:40.894Z,12.12
2023-05-10T20:11:25.904Z,12.09
2023-05-10T20:14:10.949Z,12.02
2023-05-10T20:16:56.024Z,11.90
2023-05-10T20:19:40.906Z,11.86
2023-05-10T20:22:26.046Z,11.79
2023-05-10T20:25:11.028Z,11.56
2023-05-10T20:27:55.790Z,11.48
2023-05-10T20:30:41.001Z,11.37
2023-05-10T20:33:25.916Z,11.18
2023-05-10T20:36:11.080Z,11.04
2023-05-10T20:38:56.216Z,11.07
2023-05-10T20:41:41.231Z,11.00
2023-05-10T20:44:26.143Z,10.95
2023-05-10T20:47:11.303Z,10.92
2023-05-10T20:49:56.241Z,10.92
2023-05-10T20:52:41.242Z,10.94
2023-05-10T20:55:26.320Z,10.90
2023-05-10T20:58:11.297Z,10.83
2023-05-10T21:00:56.504Z,10.77
2023-05-10T21:03:41.425Z,10.72
2023-05-10T21:06:26.505Z,10.63
2023-05-10T21:09:11.554Z,10.55
2023-05-10T21:11:56.581Z,10.63
2023-05-10T21:14:41.676Z,10.55
2023-05-10T21:17:26.562Z,10.25
2023-05-10T21:20:11.649Z,10.07
2023-05-10T21:22:56.656Z,10.04
2023-05-10T21:25:41.681Z,9.98
2023-05-10T21:28:26.649Z,9.84
2023-05-10T21:31:11.792Z,9.74
2023-05-10T21:33:56.826Z,9.72
2023-05-10T21:36:41.741Z,9.73
2023-05-10T21:39:26.932Z,9.73
2023-05-10T21:42:11.864Z,9.71
2023-05-10T21:44:56.952Z,9.72
2023-05-10T21:47:41.930Z,9.72
2023-05-10T21:50:26.894Z,9.73
2023-05-10T21:53:11.870Z,9.72
2023-05-10T21:55:56.873Z,9.67
2023-05-10T21:58:41.837Z,9.67
2023-05-10T22:01:26.805Z,9.70
2023-05-10T22:04:11.935Z,9.78
2023-05-10T22:06:56.923Z,9.83
2023-05-10T22:09:41.835Z,9.87
2023-05-10T22:12:26.816Z,9.88
2023-05-10T22:15:11.858Z,9.89
2023-05-10T22:17:57.092Z,9.94
2023-05-10T22:20:41.966Z,9.84
2023-05-10T22:23:27.283Z,9.75
2023-05-10T22:26:12.176Z,9.73
2023-05-10T22:28:57.345Z,9.79
2023-05-10T22:31:42.350Z,9.84
2023-05-10T22:34:27.497Z,9.79
2023-05-10T22:37:12.500Z,9.82
2023-05-10T22:39:57.490Z,9.87
2023-05-10T22:42:42.441Z,9.86
2023-05-10T22:45:27.454Z,9.94
2023-05-10T22:48:12.521Z,10.03
2023-05-10T22:50:57.417Z,10.07
2023-05-10T22:53:42.631Z,10.11
2023-05-10T22:56:27.512Z,10.14
2023-05-10T22:59:12.689Z,10.15
2023-05-10T23:01:57.743Z,10.18
2023-05-10T23:04:42.767Z,10.17
2023-05-10T23:07:27.971Z,10.17
2023-05-10T23:10:13.174Z,10.20
2023-05-10T23:12:58.138Z,10.18
2023-05-10T23:15:43.090Z,10.19
2023-05-10T23:18:28.173Z,10.14
2023-05-10T23:21:13.048Z,10.05
2023-05-10T23:23:58.066Z,10.05
2023-05-10T23:26:43.136Z,9.85
2023-05-10T23:29:28.213Z,9.71
2023-05-10T23:32:13.473Z,9.62
2023-05-10T23:34:58.347Z,9.59
2023-05-10T23:37:43.465Z,9.61
2023-05-10T23:40:28.309Z,9.56
2023-05-10T23:43:13.289Z,9.52
2023-05-10T23:45:58.501Z,9.42
2023-05-10T23:48:43.445Z,9.33
2023-05-10T23:51:28.741Z,9.26
2023-05-10T23:54:13.566Z,9.20
2023-05-10T23:56:58.900Z,9.14
2023-05-10T23:59:43.904Z,9.10
